CheckWX is a tool to help pilots better visualize weather data.  It is not intended as a substitute for an official pre-flight weather briefing.

12:30:19 UTC

PATO METAR
Portage Glacier Airport
Portage, Alaska, USA
Current

37 mins ago

PATO 261153Z AUTO 00000KT 4SM BR CLR 06/06 A3012 RMK AO2 SLP200 T00560056 10128 20056 50005 TSNO
Observed
Jun-26 @ 11:53 UTC
Visibility
4 SM
Flight Rules
MVFR
Conditions
Mist
Cloud Levels
  • Clear skies
Temperature
C / 43°F
Dewpoint
C / 43°F
Humidity
100%
Altimeter
30.12" Hg
Pressure
1020.02 hPa
Previous

2 hours ago

PATO 261053Z AUTO 00000KT 5SM BR CLR 07/07 A3012 RMK AO2 SLP200 T00670067 TSNO
Observed
Jun-26 @ 10:53 UTC
Visibility
5 SM
Flight Rules
MVFR
Conditions
Mist
Cloud Levels
  • Clear skies
Temperature
C / 45°F
Dewpoint
C / 45°F
Humidity
100%
Altimeter
30.12" Hg
Pressure
1020.02 hPa
Previous

3 hours ago

PATO 260953Z AUTO 15004KT 5SM BR CLR 07/07 A3011 RMK AO2 SLP197 T00720072 TSNO
Observed
Jun-26 @ 09:53 UTC
Wind
  • 150° at 4 KTS
Visibility
5 SM
Flight Rules
MVFR
Conditions
Mist
Cloud Levels
  • Clear skies
Temperature
C / 45°F
Dewpoint
C / 45°F
Humidity
100%
Altimeter
30.11" Hg
Pressure
1019.62 hPa